createdAt,value
2018-08-16T00:00:26.843Z,19.50
2018-08-16T00:01:26.875Z,19.53
2018-08-16T00:02:26.902Z,19.37
2018-08-16T00:03:26.931Z,19.46
2018-08-16T00:04:26.965Z,19.43
2018-08-16T00:05:26.997Z,19.46
2018-08-16T00:06:27.025Z,19.42
2018-08-16T00:07:27.056Z,19.37
2018-08-16T00:08:27.089Z,19.40
2018-08-16T00:09:27.117Z,19.45
2018-08-16T00:10:27.148Z,19.30
2018-08-16T00:11:27.175Z,19.37
2018-08-16T00:12:27.205Z,19.27
2018-08-16T00:13:27.238Z,19.32
2018-08-16T00:14:27.266Z,19.30
2018-08-16T00:15:27.298Z,19.35
2018-08-16T00:16:27.327Z,19.31
2018-08-16T00:17:27.355Z,19.32
2018-08-16T00:18:27.390Z,19.31
2018-08-16T00:19:27.431Z,19.34
2018-08-16T00:20:27.446Z,19.31
2018-08-16T00:21:27.476Z,19.30
2018-08-16T00:22:27.510Z,19.28
2018-08-16T00:23:27.536Z,19.28
2018-08-16T00:24:27.567Z,19.23
2018-08-16T00:25:27.596Z,19.32
2018-08-16T00:26:27.629Z,19.24
2018-08-16T00:27:27.660Z,19.15
2018-08-16T00:28:27.687Z,19.16
2018-08-16T00:29:27.720Z,19.16
2018-08-16T00:30:27.749Z,19.17
2018-08-16T00:31:27.780Z,19.24
2018-08-16T00:32:27.809Z,19.12
2018-08-16T00:33:27.836Z,19.07
2018-08-16T00:34:27.869Z,19.17
2018-08-16T00:35:27.901Z,19.19
2018-08-16T00:36:27.930Z,19.16
2018-08-16T00:37:27.959Z,19.15
2018-08-16T00:38:27.989Z,19.15
2018-08-16T00:39:28.022Z,19.09
2018-08-16T00:40:28.049Z,19.02
2018-08-16T00:41:28.078Z,19.07
2018-08-16T00:42:28.110Z,19.00
2018-08-16T00:43:28.139Z,19.09
2018-08-16T00:44:28.170Z,19.02
2018-08-16T00:45:28.199Z,19.00
2018-08-16T00:46:28.231Z,18.96
2018-08-16T00:47:28.260Z,19.09
2018-08-16T00:48:28.291Z,19.05
2018-08-16T00:49:31.351Z,19.02
2018-08-16T00:50:28.349Z,19.05
2018-08-16T00:51:28.379Z,19.05
2018-08-16T00:52:28.411Z,18.99
2018-08-16T00:53:28.440Z,18.91
2018-08-16T00:54:28.472Z,18.87
2018-08-16T00:55:28.500Z,18.90
2018-08-16T00:56:28.531Z,18.90
2018-08-16T00:57:28.559Z,18.91
2018-08-16T00:58:28.589Z,19.02
2018-08-16T00:59:28.618Z,18.84
2018-08-16T01:00:28.652Z,18.97
2018-08-16T01:01:28.678Z,18.90
2018-08-16T01:02:28.708Z,18.99
2018-08-16T01:03:28.742Z,18.90
2018-08-16T01:04:28.775Z,18.94
2018-08-16T01:05:28.800Z,18.93
2018-08-16T01:06:28.830Z,18.86
2018-08-16T01:07:28.857Z,18.82
2018-08-16T01:08:28.891Z,18.82
2018-08-16T01:09:28.920Z,18.81
2018-08-16T01:10:28.950Z,18.86
2018-08-16T01:11:28.981Z,18.89
2018-08-16T01:12:29.008Z,18.78
2018-08-16T01:13:29.043Z,18.81
2018-08-16T01:14:29.067Z,18.82
2018-08-16T01:15:29.101Z,18.84
2018-08-16T01:16:29.131Z,18.76
2018-08-16T01:17:29.223Z,18.72
2018-08-16T01:18:29.191Z,18.78
2018-08-16T01:19:29.220Z,18.68
2018-08-16T01:20:29.250Z,18.68
2018-08-16T01:21:29.277Z,18.66
2018-08-16T01:22:29.310Z,18.74
2018-08-16T01:23:29.341Z,18.65
2018-08-16T01:24:29.371Z,18.72
2018-08-16T01:25:29.399Z,18.59
2018-08-16T01:26:29.430Z,18.60
2018-08-16T01:27:29.460Z,18.60
2018-08-16T01:28:29.486Z,18.59
2018-08-16T01:29:29.516Z,18.60
2018-08-16T01:30:29.547Z,18.56
2018-08-16T01:31:29.580Z,18.56
2018-08-16T01:32:29.611Z,18.71
2018-08-16T01:33:29.638Z,18.61
2018-08-16T01:34:29.669Z,18.54
2018-08-16T01:35:29.759Z,18.53
2018-08-16T01:36:29.728Z,18.49
2018-08-16T01:37:29.754Z,18.53
2018-08-16T01:38:29.790Z,18.50
2018-08-16T01:39:29.819Z,18.51
2018-08-16T01:40:29.846Z,18.54
2018-08-16T01:41:29.876Z,18.53
2018-08-16T01:42:29.908Z,18.56
2018-08-16T01:43:29.934Z,18.47
2018-08-16T01:44:29.979Z,18.51
2018-08-16T01:45:29.997Z,18.50
2018-08-16T01:46:30.025Z,18.51
2018-08-16T01:47:30.056Z,18.42
2018-08-16T01:48:30.087Z,18.44
2018-08-16T01:49:30.114Z,18.51
2018-08-16T01:50:30.148Z,18.44
2018-08-16T01:51:30.178Z,18.41
2018-08-16T01:52:30.207Z,18.42
2018-08-16T01:53:30.232Z,18.39
2018-08-16T01:54:30.265Z,18.41
2018-08-16T01:55:30.293Z,18.39
2018-08-16T01:56:30.324Z,18.42
2018-08-16T01:57:30.353Z,18.35
2018-08-16T01:58:30.386Z,18.32
2018-08-16T01:59:30.415Z,18.23
2018-08-16T02:00:30.445Z,18.26
2018-08-16T02:01:30.471Z,18.32
2018-08-16T02:02:30.501Z,18.27
2018-08-16T02:03:30.580Z,18.34
2018-08-16T02:04:30.563Z,18.26
2018-08-16T02:05:30.590Z,18.29
2018-08-16T02:06:30.623Z,18.26
2018-08-16T02:07:30.654Z,18.29
2018-08-16T02:08:30.682Z,18.21
2018-08-16T02:09:30.711Z,18.20
2018-08-16T02:10:30.739Z,18.19
2018-08-16T02:11:30.772Z,18.23
2018-08-16T02:12:30.799Z,18.24
2018-08-16T02:13:30.829Z,18.26
2018-08-16T02:14:30.857Z,18.23
2018-08-16T02:15:30.888Z,18.19
2018-08-16T02:16:30.921Z,18.26
2018-08-16T02:17:30.946Z,18.21
2018-08-16T02:18:30.977Z,18.21
2018-08-16T02:19:31.010Z,18.27
2018-08-16T02:20:31.039Z,18.17
2018-08-16T02:21:31.069Z,18.26
2018-08-16T02:22:31.099Z,18.19
2018-08-16T02:23:31.127Z,18.23
2018-08-16T02:24:31.158Z,18.21
2018-08-16T02:25:31.186Z,18.19
2018-08-16T02:26:31.217Z,18.20
2018-08-16T02:27:31.244Z,18.20
2018-08-16T02:28:31.277Z,18.16
2018-08-16T02:29:31.302Z,18.17
2018-08-16T02:30:31.335Z,18.10
2018-08-16T02:31:31.364Z,18.13
2018-08-16T02:32:31.393Z,18.17
2018-08-16T02:33:31.426Z,18.11
2018-08-16T02:34:31.452Z,18.08
2018-08-16T02:35:31.484Z,18.08
2018-08-16T02:36:31.513Z,18.08
2018-08-16T02:37:31.543Z,18.03
2018-08-16T02:38:31.570Z,18.02
2018-08-16T02:39:31.603Z,18.05
2018-08-16T02:40:31.632Z,18.11
2018-08-16T02:41:31.660Z,17.95
2018-08-16T02:42:31.690Z,17.92
2018-08-16T02:43:31.717Z,17.95
2018-08-16T02:44:31.749Z,17.98
2018-08-16T02:45:31.781Z,18.01
2018-08-16T02:46:31.806Z,17.94
2018-08-16T02:47:31.840Z,18.03
2018-08-16T02:48:31.866Z,17.98
2018-08-16T02:49:31.896Z,17.98
2018-08-16T02:50:31.928Z,17.94
2018-08-16T02:51:31.957Z,17.96
2018-08-16T02:52:31.986Z,17.95
2018-08-16T02:53:32.011Z,18.02
2018-08-16T02:54:32.043Z,17.92
2018-08-16T02:55:32.071Z,17.94
2018-08-16T02:56:32.112Z,18.01
2018-08-16T02:57:32.134Z,17.95
2018-08-16T02:58:32.160Z,17.96
2018-08-16T02:59:32.190Z,17.84
2018-08-16T03:00:32.222Z,17.95
2018-08-16T03:01:32.248Z,17.87
2018-08-16T03:02:32.283Z,17.88
2018-08-16T03:03:32.308Z,17.83
2018-08-16T03:04:32.336Z,17.83
2018-08-16T03:05:32.369Z,17.87
2018-08-16T03:06:32.397Z,17.87
2018-08-16T03:07:32.427Z,17.77
2018-08-16T03:08:32.455Z,17.87
2018-08-16T03:09:32.488Z,17.79
2018-08-16T03:10:32.517Z,17.79
2018-08-16T03:11:32.545Z,17.80
2018-08-16T03:12:32.573Z,17.81
2018-08-16T03:13:32.602Z,17.81
2018-08-16T03:14:32.631Z,17.81
2018-08-16T03:15:32.662Z,17.84
2018-08-16T03:16:32.693Z,17.74
2018-08-16T03:17:32.722Z,17.87
2018-08-16T03:18:32.748Z,17.79
2018-08-16T03:19:32.778Z,17.90
2018-08-16T03:20:32.808Z,17.80
2018-08-16T03:21:32.836Z,17.84
2018-08-16T03:22:32.868Z,17.77
2018-08-16T03:23:32.899Z,17.87
2018-08-16T03:24:32.926Z,17.84
2018-08-16T03:25:32.959Z,17.79
2018-08-16T03:26:32.985Z,17.79
2018-08-16T03:27:33.015Z,17.77
2018-08-16T03:28:33.044Z,17.86
2018-08-16T03:29:33.075Z,17.90
2018-08-16T03:30:33.105Z,17.84
2018-08-16T03:31:33.136Z,17.87
2018-08-16T03:32:33.164Z,17.90
2018-08-16T03:33:33.191Z,17.90
2018-08-16T03:34:33.224Z,17.90
2018-08-16T03:35:33.250Z,17.86
2018-08-16T03:36:33.283Z,17.83
2018-08-16T03:37:33.309Z,17.86
2018-08-16T03:38:33.344Z,17.80
2018-08-16T03:39:33.367Z,17.76
2018-08-16T03:40:33.401Z,17.86
2018-08-16T03:41:33.427Z,17.84
2018-08-16T03:42:33.456Z,17.79
2018-08-16T03:43:33.490Z,17.88
2018-08-16T03:44:33.517Z,17.81
2018-08-16T03:45:33.548Z,17.83
2018-08-16T03:46:33.575Z,17.76
2018-08-16T03:47:33.603Z,17.77
2018-08-16T03:48:33.636Z,17.79
2018-08-16T03:49:33.662Z,17.73
2018-08-16T03:50:33.695Z,17.76
2018-08-16T03:51:33.723Z,17.68
2018-08-16T03:52:33.754Z,17.71
2018-08-16T03:53:33.783Z,17.79
2018-08-16T03:54:33.812Z,17.65
2018-08-16T03:55:33.845Z,17.68
2018-08-16T03:56:33.872Z,17.60
2018-08-16T03:57:33.900Z,17.55
2018-08-16T03:58:33.929Z,17.65
2018-08-16T03:59:33.960Z,17.65
2018-08-16T04:00:33.990Z,17.63
2018-08-16T04:01:34.017Z,17.62
2018-08-16T04:02:34.047Z,17.58
2018-08-16T04:03:34.077Z,17.60
2018-08-16T04:04:34.109Z,17.60
2018-08-16T04:05:34.135Z,17.62
2018-08-16T04:06:34.164Z,17.57
2018-08-16T04:07:34.194Z,17.58
2018-08-16T04:08:34.228Z,17.58
2018-08-16T04:09:34.253Z,17.57
2018-08-16T04:10:34.283Z,17.50
2018-08-16T04:11:34.310Z,17.58
2018-08-16T04:12:34.338Z,17.57
2018-08-16T04:13:34.370Z,17.54
2018-08-16T04:14:34.398Z,17.58
2018-08-16T04:15:34.432Z,17.62
2018-08-16T04:16:34.456Z,17.62
2018-08-16T04:17:34.484Z,17.55
2018-08-16T04:18:34.519Z,17.55
2018-08-16T04:19:34.545Z,17.55
2018-08-16T04:20:34.573Z,17.54
2018-08-16T04:21:34.607Z,17.55
2018-08-16T04:22:34.634Z,17.58
2018-08-16T04:23:34.706Z,17.58
2018-08-16T04:24:34.691Z,17.55
2018-08-16T04:25:34.723Z,17.55
2018-08-16T04:26:34.749Z,17.55
2018-08-16T04:27:34.779Z,17.58
2018-08-16T04:28:34.808Z,17.57
2018-08-16T04:29:34.837Z,17.57
2018-08-16T04:30:34.866Z,17.65
2018-08-16T04:31:34.896Z,17.57
2018-08-16T04:32:34.928Z,17.63
2018-08-16T04:33:34.954Z,17.57
2018-08-16T04:34:34.986Z,17.60
2018-08-16T04:35:35.087Z,17.55
2018-08-16T04:36:35.044Z,17.66
2018-08-16T04:37:35.073Z,17.63
2018-08-16T04:38:35.103Z,17.60
2018-08-16T04:39:35.131Z,17.66
2018-08-16T04:40:35.160Z,17.69
2018-08-16T04:41:35.273Z,17.62
2018-08-16T04:42:35.220Z,17.76
2018-08-16T04:43:35.248Z,17.77
2018-08-16T04:44:35.280Z,17.71
2018-08-16T04:45:35.308Z,17.69
2018-08-16T04:46:35.339Z,17.68
2018-08-16T04:47:35.365Z,17.77
2018-08-16T04:48:35.416Z,17.77
2018-08-16T04:49:35.427Z,17.79
2018-08-16T04:50:35.456Z,17.81
2018-08-16T04:51:35.486Z,17.77
2018-08-16T04:52:35.517Z,17.79
2018-08-16T04:53:35.540Z,17.83
2018-08-16T04:54:35.570Z,17.84
2018-08-16T04:55:35.602Z,17.77
2018-08-16T04:56:35.634Z,17.81
2018-08-16T04:57:35.662Z,17.79
2018-08-16T04:58:35.690Z,17.86
2018-08-16T04:59:35.720Z,17.84
2018-08-16T05:00:35.750Z,17.86
2018-08-16T05:01:35.776Z,17.86
2018-08-16T05:02:35.806Z,17.92
2018-08-16T05:03:35.842Z,18.01
2018-08-16T05:04:35.864Z,17.96
2018-08-16T05:05:35.899Z,17.92
2018-08-16T05:06:35.925Z,17.95
2018-08-16T05:07:35.956Z,17.98
2018-08-16T05:08:35.985Z,17.96
2018-08-16T05:09:36.011Z,18.02
2018-08-16T05:10:36.044Z,18.01
2018-08-16T05:11:36.071Z,18.01
2018-08-16T05:12:36.100Z,18.10
2018-08-16T05:13:36.129Z,18.08
2018-08-16T05:14:36.160Z,18.19
2018-08-16T05:15:36.192Z,18.16
2018-08-16T05:16:36.220Z,18.24
2018-08-16T05:17:36.248Z,18.27
2018-08-16T05:18:36.283Z,18.32
2018-08-16T05:19:36.308Z,18.41
2018-08-16T05:20:36.336Z,18.32
2018-08-16T05:21:36.365Z,18.42
2018-08-16T05:22:36.402Z,18.38
2018-08-16T05:23:36.424Z,18.50
2018-08-16T05:24:36.459Z,18.54
2018-08-16T05:25:36.484Z,18.51
2018-08-16T05:26:36.512Z,18.49
2018-08-16T05:27:36.542Z,18.65
2018-08-16T05:28:36.572Z,18.56
2018-08-16T05:29:36.604Z,18.61
2018-08-16T05:30:36.630Z,18.66
2018-08-16T05:31:36.679Z,18.61
2018-08-16T05:32:36.693Z,18.57
2018-08-16T05:33:36.721Z,18.68
2018-08-16T05:34:36.752Z,18.74
2018-08-16T05:35:36.784Z,18.60
2018-08-16T05:36:36.809Z,18.75
2018-08-16T05:37:36.837Z,18.60
2018-08-16T05:38:36.870Z,18.60
2018-08-16T05:39:36.900Z,18.63
2018-08-16T05:40:36.929Z,18.71
2018-08-16T05:41:36.959Z,18.74
2018-08-16T05:42:36.990Z,18.78
2018-08-16T05:43:37.063Z,18.72
2018-08-16T05:44:37.046Z,18.75
2018-08-16T05:45:37.078Z,18.89
2018-08-16T05:46:37.105Z,18.81
2018-08-16T05:47:37.136Z,18.89
2018-08-16T05:48:37.165Z,18.90
2018-08-16T05:49:37.195Z,18.82
2018-08-16T05:50:37.246Z,18.81
2018-08-16T05:51:37.258Z,18.87
2018-08-16T05:52:37.284Z,18.96
2018-08-16T05:53:37.316Z,18.89
2018-08-16T05:54:37.346Z,18.94
2018-08-16T05:55:37.373Z,19.02
2018-08-16T05:56:37.403Z,19.20
2018-08-16T05:57:37.434Z,19.31
2018-08-16T05:58:37.466Z,19.34
2018-08-16T05:59:37.496Z,19.57
2018-08-16T06:00:37.524Z,19.75
2018-08-16T06:01:37.551Z,19.83
2018-08-16T06:02:37.584Z,20.07
2018-08-16T06:03:37.615Z,20.18
2018-08-16T06:04:37.644Z,20.29
2018-08-16T06:05:37.674Z,20.27
2018-08-16T06:06:37.701Z,20.29
2018-08-16T06:07:37.845Z,20.30
2018-08-16T06:08:37.761Z,20.18
2018-08-16T06:09:37.799Z,20.05
2018-08-16T06:10:37.826Z,20.05
2018-08-16T06:11:37.857Z,20.16
2018-08-16T06:12:37.887Z,20.27
2018-08-16T06:13:37.919Z,20.37
2018-08-16T06:14:37.949Z,20.61
2018-08-16T06:15:37.980Z,20.63
2018-08-16T06:16:38.009Z,20.83
2018-08-16T06:17:38.037Z,20.93
2018-08-16T06:18:38.072Z,21.12
2018-08-16T06:19:38.102Z,21.30
2018-08-16T06:20:38.133Z,21.16
2018-08-16T06:21:38.166Z,21.31
2018-08-16T06:22:38.197Z,21.27
2018-08-16T06:23:38.227Z,21.45
2018-08-16T06:24:38.257Z,21.52
2018-08-16T06:25:38.291Z,21.23
2018-08-16T06:26:38.319Z,20.97
2018-08-16T06:27:38.353Z,20.97
2018-08-16T06:28:38.382Z,21.21
2018-08-16T06:29:38.418Z,21.51
2018-08-16T06:30:38.450Z,21.27
2018-08-16T06:31:38.543Z,21.28
2018-08-16T06:32:38.571Z,21.27
2018-08-16T06:33:38.545Z,21.48
2018-08-16T06:34:38.577Z,21.59
2018-08-16T06:35:38.606Z,21.82
2018-08-16T06:36:38.641Z,22.00
2018-08-16T06:37:38.670Z,21.85
2018-08-16T06:38:38.702Z,22.16
2018-08-16T06:39:38.736Z,21.99
2018-08-16T06:40:38.768Z,21.97
2018-08-16T06:41:38.799Z,21.82
2018-08-16T06:42:38.835Z,21.80
2018-08-16T06:43:38.864Z,21.64
2018-08-16T06:44:38.900Z,21.62
2018-08-16T06:45:38.930Z,21.58
2018-08-16T06:46:38.965Z,21.53
2018-08-16T06:47:38.999Z,21.53
2018-08-16T06:48:39.030Z,21.43
2018-08-16T06:49:39.060Z,21.43
2018-08-16T06:50:39.091Z,21.55
2018-08-16T06:51:39.125Z,21.77
2018-08-16T06:52:39.287Z,21.96
2018-08-16T06:53:39.192Z,22.09
2018-08-16T06:54:39.226Z,22.34
2018-08-16T06:55:39.257Z,22.66
2018-08-16T06:56:39.290Z,22.82
2018-08-16T06:57:39.321Z,23.19
2018-08-16T06:58:39.355Z,23.24
2018-08-16T06:59:39.390Z,23.60
2018-08-16T07:00:39.421Z,23.94
2018-08-16T07:01:39.452Z,23.97
2018-08-16T07:02:39.482Z,24.33
2018-08-16T07:03:39.514Z,24.54
2018-08-16T07:04:39.553Z,24.22
2018-08-16T07:05:39.581Z,24.14
2018-08-16T07:06:39.617Z,23.75
2018-08-16T07:07:39.648Z,24.02
2018-08-16T07:08:39.683Z,23.52
2018-08-16T07:09:39.714Z,23.64
2018-08-16T07:10:39.750Z,24.00
2018-08-16T07:11:39.784Z,24.12
2018-08-16T07:12:39.819Z,24.63
2018-08-16T07:13:39.853Z,24.54
2018-08-16T07:14:39.886Z,24.74
2018-08-16T07:15:39.919Z,24.77
2018-08-16T07:16:39.953Z,25.11
2018-08-16T07:17:39.985Z,24.70
2018-08-16T07:18:40.028Z,24.75
2018-08-16T07:19:40.666Z,24.90
2018-08-16T07:20:40.093Z,24.93
2018-08-16T07:21:40.124Z,25.08
2018-08-16T07:22:40.163Z,25.33
2018-08-16T07:23:40.194Z,25.42
2018-08-16T07:24:40.246Z,25.33
2018-08-16T07:25:40.269Z,25.23
2018-08-16T07:26:40.300Z,25.27
2018-08-16T07:27:42.960Z,25.57
2018-08-16T07:28:40.375Z,25.71
2018-08-16T07:29:40.412Z,25.54
2018-08-16T07:30:40.443Z,25.93
2018-08-16T07:31:40.481Z,25.70
2018-08-16T07:32:40.517Z,25.42
2018-08-16T07:33:40.551Z,25.11
2018-08-16T07:34:40.589Z,25.29
2018-08-16T07:35:40.629Z,25.44
2018-08-16T07:36:40.661Z,25.37
2018-08-16T07:37:40.694Z,25.71
2018-08-16T07:38:40.733Z,26.11
2018-08-16T07:39:40.771Z,26.19
2018-08-16T07:40:40.804Z,26.24
2018-08-16T07:41:40.845Z,26.22
2018-08-16T07:42:40.877Z,26.20
2018-08-16T07:43:40.913Z,25.84
2018-08-16T07:44:40.951Z,25.22
2018-08-16T07:46:41.024Z,25.09
2018-08-16T07:47:41.059Z,25.01
2018-08-16T07:48:41.097Z,25.11
2018-08-16T07:49:41.266Z,25.29
2018-08-16T07:50:41.174Z,25.23
2018-08-16T07:51:41.416Z,25.76
2018-08-16T07:52:41.246Z,25.82
2018-08-16T07:53:41.280Z,25.89
2018-08-16T07:54:41.318Z,26.17
2018-08-16T07:55:41.353Z,26.45
2018-08-16T07:56:41.390Z,26.61
2018-08-16T07:57:41.429Z,26.42
2018-08-16T07:58:41.465Z,26.44
2018-08-16T07:59:41.501Z,26.11
2018-08-16T08:00:41.537Z,26.42
2018-08-16T08:01:41.577Z,26.20
2018-08-16T08:02:41.611Z,26.38
2018-08-16T08:03:41.650Z,26.44
2018-08-16T08:04:41.686Z,26.59
2018-08-16T08:05:41.722Z,26.12
2018-08-16T08:06:41.759Z,26.32
2018-08-16T08:07:41.800Z,26.17
2018-08-16T08:08:41.835Z,25.97
2018-08-16T08:09:41.949Z,26.19
2018-08-16T08:10:41.910Z,26.12
2018-08-16T08:11:41.947Z,26.03
2018-08-16T08:12:41.986Z,25.89
2018-08-16T08:13:42.023Z,25.81
2018-08-16T08:14:42.059Z,25.99
2018-08-16T08:15:42.101Z,26.11
2018-08-16T08:16:42.137Z,26.15
2018-08-16T08:17:42.173Z,26.27
2018-08-16T08:18:42.211Z,26.16
2018-08-16T08:19:42.247Z,25.88
2018-08-16T08:20:42.287Z,26.16
2018-08-16T08:21:42.322Z,26.38
2018-08-16T08:22:42.359Z,26.41
2018-08-16T08:23:42.399Z,26.67
2018-08-16T08:24:42.440Z,26.68
2018-08-16T08:25:42.477Z,26.94
2018-08-16T08:26:42.510Z,27.15
2018-08-16T08:27:42.547Z,27.80
2018-08-16T08:28:42.586Z,28.08
2018-08-16T08:29:42.627Z,28.33
2018-08-16T08:30:42.664Z,28.61
2018-08-16T08:31:42.794Z,28.95
2018-08-16T08:32:42.741Z,29.08
2018-08-16T08:33:42.776Z,29.01
2018-08-16T08:34:42.814Z,28.94
2018-08-16T08:35:42.854Z,28.76
2018-08-16T08:36:42.893Z,28.51
2018-08-16T08:37:42.927Z,28.43
2018-08-16T08:38:43.007Z,28.83
2018-08-16T08:39:43.010Z,28.92
2018-08-16T08:40:43.044Z,29.06
2018-08-16T08:41:43.084Z,29.24
2018-08-16T08:42:43.120Z,29.51
2018-08-16T08:43:43.162Z,29.79
2018-08-16T08:44:43.203Z,29.54
2018-08-16T08:45:43.237Z,29.43
2018-08-16T08:46:43.274Z,29.77
2018-08-16T08:47:43.315Z,29.60
2018-08-16T08:48:43.354Z,29.95
2018-08-16T08:49:43.393Z,29.94
2018-08-16T08:50:43.439Z,29.97
2018-08-16T08:51:43.474Z,30.22
2018-08-16T08:52:43.511Z,29.97
2018-08-16T08:53:43.555Z,28.58
2018-08-16T08:54:43.591Z,28.65
2018-08-16T08:55:43.630Z,28.79
2018-08-16T08:56:43.667Z,28.73
2018-08-16T08:57:43.708Z,28.11
2018-08-16T08:58:43.749Z,27.76
2018-08-16T08:59:43.790Z,27.79
2018-08-16T09:00:43.829Z,28.31
2018-08-16T09:01:43.866Z,28.85
2018-08-16T09:02:43.908Z,29.02
2018-08-16T09:03:43.945Z,28.06
2018-08-16T09:04:43.985Z,27.91
2018-08-16T09:05:44.023Z,27.52
2018-08-16T09:06:44.066Z,27.76
2018-08-16T09:07:44.105Z,27.83
2018-08-16T09:08:44.141Z,27.64
2018-08-16T09:09:44.178Z,27.26
2018-08-16T09:10:44.222Z,27.53
2018-08-16T09:11:44.256Z,27.42
2018-08-16T09:12:44.298Z,26.79
2018-08-16T09:13:44.349Z,27.21
2018-08-16T09:14:44.395Z,27.84
2018-08-16T09:15:44.411Z,28.53
2018-08-16T09:16:44.461Z,28.67
2018-08-16T09:17:44.492Z,28.54
2018-08-16T09:18:44.531Z,28.53
2018-08-16T09:19:44.569Z,28.09
2018-08-16T09:20:44.609Z,27.46
2018-08-16T09:21:44.647Z,26.56
2018-08-16T09:22:44.683Z,26.53
2018-08-16T09:24:44.761Z,26.72
2018-08-16T09:25:44.798Z,26.82
2018-08-16T09:26:44.842Z,27.18
2018-08-16T09:27:44.880Z,27.46
2018-08-16T09:28:44.921Z,28.06
2018-08-16T09:29:44.953Z,28.21
2018-08-16T09:30:44.992Z,28.24
2018-08-16T09:31:45.138Z,28.65
2018-08-16T09:32:45.071Z,28.72
2018-08-16T09:33:45.107Z,29.35
2018-08-16T09:34:45.142Z,29.38
2018-08-16T09:35:45.181Z,29.10
2018-08-16T09:36:45.221Z,28.73
2018-08-16T09:37:45.264Z,28.06
2018-08-16T09:38:45.297Z,28.53
2018-08-16T09:39:45.490Z,28.49
2018-08-16T09:40:45.373Z,28.02
2018-08-16T09:41:45.411Z,28.05
2018-08-16T09:42:45.451Z,27.89
2018-08-16T09:43:45.488Z,28.35
2018-08-16T09:44:45.530Z,28.31
2018-08-16T09:45:45.642Z,28.86
2018-08-16T09:46:45.604Z,29.33
2018-08-16T09:47:45.645Z,28.95
2018-08-16T09:48:45.684Z,28.53
2018-08-16T09:49:45.722Z,28.43
2018-08-16T09:50:45.759Z,28.78
2018-08-16T09:51:45.857Z,28.83
2018-08-16T09:52:45.850Z,28.80
2018-08-16T09:53:45.874Z,28.60
2018-08-16T09:54:45.914Z,28.82
2018-08-16T09:55:45.958Z,28.95
2018-08-16T09:56:45.992Z,29.08
2018-08-16T09:57:46.032Z,29.10
2018-08-16T09:58:46.072Z,29.28
2018-08-16T09:59:46.107Z,29.26
2018-08-16T10:00:46.150Z,29.48
2018-08-16T10:01:46.187Z,29.08
2018-08-16T10:02:46.227Z,28.63
2018-08-16T10:03:46.264Z,28.92
2018-08-16T10:04:46.309Z,29.35
2018-08-16T10:05:46.342Z,29.35
2018-08-16T10:06:46.382Z,29.39
2018-08-16T10:07:46.421Z,30.19
2018-08-16T10:08:46.462Z,30.07
2018-08-16T10:09:46.498Z,29.77
2018-08-16T10:10:46.538Z,29.57
2018-08-16T10:11:46.581Z,29.85
2018-08-16T10:12:46.615Z,29.95
2018-08-16T10:13:46.656Z,28.91
2018-08-16T10:14:46.695Z,28.26
2018-08-16T10:15:46.733Z,28.97
2018-08-16T10:16:46.774Z,29.33
2018-08-16T10:17:46.810Z,29.69
2018-08-16T10:18:46.853Z,29.98
2018-08-16T10:19:46.889Z,29.57
2018-08-16T10:20:46.938Z,29.39
2018-08-16T10:21:46.968Z,29.54
2018-08-16T10:22:47.008Z,28.53
2018-08-16T10:23:47.049Z,28.58
2018-08-16T10:24:47.085Z,29.06
2018-08-16T10:25:47.124Z,29.38
2018-08-16T10:26:47.179Z,29.14
2018-08-16T10:27:47.204Z,29.48
2018-08-16T10:28:47.244Z,30.19
2018-08-16T10:29:47.282Z,30.02
2018-08-16T10:30:47.319Z,30.37
2018-08-16T10:31:47.362Z,30.48
2018-08-16T10:32:47.402Z,30.22
2018-08-16T10:33:47.439Z,30.25
2018-08-16T10:34:47.478Z,30.39
2018-08-16T10:35:47.519Z,30.37
2018-08-16T10:36:47.560Z,30.48
2018-08-16T10:37:47.596Z,31.06
2018-08-16T10:38:47.637Z,31.22
2018-08-16T10:39:47.672Z,31.00
2018-08-16T10:40:47.715Z,30.91
2018-08-16T10:41:47.757Z,31.28
2018-08-16T10:42:47.796Z,31.91
2018-08-16T10:43:47.832Z,31.94
2018-08-16T10:44:47.875Z,31.01
2018-08-16T10:45:47.913Z,30.42
2018-08-16T11:11:37.474Z,31.21
2018-08-16T11:12:37.515Z,31.65
2018-08-16T11:13:37.553Z,31.68
2018-08-16T11:14:37.594Z,31.49
2018-08-16T11:15:37.631Z,31.26
2018-08-16T11:16:37.671Z,31.52
2018-08-16T11:17:37.714Z,31.65
2018-08-16T11:18:37.753Z,31.68
2018-08-16T11:19:37.796Z,31.45
2018-08-16T11:20:37.834Z,31.93
2018-08-16T11:21:37.876Z,32.00
2018-08-16T11:22:37.914Z,31.95
2018-08-16T11:23:37.956Z,31.63
2018-08-16T11:24:37.997Z,31.40
2018-08-16T11:25:38.037Z,31.43
2018-08-16T11:26:38.074Z,31.86
2018-08-16T11:27:38.116Z,31.60
2018-08-16T11:28:38.157Z,31.37
2018-08-16T11:29:38.195Z,31.63
2018-08-16T11:30:38.236Z,31.44
2018-08-16T11:31:38.277Z,31.50
2018-08-16T11:32:38.321Z,31.86
2018-08-16T11:33:38.359Z,32.20
2018-08-16T11:34:38.401Z,31.52
2018-08-16T11:35:38.439Z,32.08
2018-08-16T11:36:38.481Z,32.57
2018-08-16T11:37:38.575Z,31.88
2018-08-16T11:38:38.559Z,32.30
2018-08-16T11:39:38.597Z,32.38
2018-08-16T11:40:38.656Z,32.39
2018-08-16T11:41:38.686Z,32.32
2018-08-16T11:42:38.722Z,31.90
2018-08-16T11:43:38.765Z,31.70
2018-08-16T11:44:38.804Z,31.53
2018-08-16T11:45:38.847Z,31.47
2018-08-16T11:46:38.933Z,31.60
2018-08-16T11:47:38.922Z,31.38
2018-08-16T11:48:38.962Z,31.15
2018-08-16T11:49:39.003Z,31.43
2018-08-16T11:50:39.040Z,31.12
2018-08-16T11:51:39.086Z,30.73
2018-08-16T11:52:39.123Z,31.15
2018-08-16T11:53:39.164Z,31.50
2018-08-16T11:54:39.203Z,31.68
2018-08-16T11:55:39.246Z,31.67
2018-08-16T11:56:39.287Z,31.34
2018-08-16T11:57:39.327Z,31.16
2018-08-16T11:58:39.390Z,31.40
2018-08-16T11:59:39.404Z,31.53
2018-08-16T12:00:39.447Z,32.05
2018-08-16T12:01:39.486Z,32.76
2018-08-16T12:02:39.522Z,33.29
2018-08-16T12:03:39.566Z,33.53
2018-08-16T12:04:39.606Z,33.61
2018-08-16T12:05:39.644Z,32.99
2018-08-16T12:06:39.683Z,33.13
2018-08-16T12:07:39.724Z,33.46
2018-08-16T12:08:39.763Z,33.16
2018-08-16T12:09:39.806Z,32.93
2018-08-16T12:10:39.846Z,32.74
2018-08-16T12:11:39.891Z,32.47
2018-08-16T12:12:39.924Z,32.47
2018-08-16T12:13:39.965Z,31.91
2018-08-16T12:14:40.028Z,31.60
2018-08-16T12:15:40.045Z,31.18
2018-08-16T12:16:40.092Z,31.36
2018-08-16T12:17:40.128Z,31.08
2018-08-16T12:18:40.168Z,31.13
2018-08-16T12:19:40.205Z,31.75
2018-08-16T12:20:40.248Z,31.97
2018-08-16T12:21:40.289Z,32.30
2018-08-16T12:22:40.328Z,32.62
2018-08-16T12:23:40.364Z,32.39
2018-08-16T12:24:40.411Z,32.30
2018-08-16T12:25:40.447Z,32.12
2018-08-16T12:26:40.486Z,31.40
2018-08-16T12:27:40.524Z,31.53
2018-08-16T12:28:40.566Z,31.77
2018-08-16T12:29:40.604Z,31.93
2018-08-16T12:30:40.642Z,32.06
2018-08-16T12:31:40.687Z,31.95
2018-08-16T12:32:40.727Z,32.06
2018-08-16T12:33:40.763Z,32.25
2018-08-16T12:34:40.832Z,32.57
2018-08-16T12:35:40.847Z,32.00
2018-08-16T12:36:40.886Z,32.00
2018-08-16T12:37:40.928Z,32.59
2018-08-16T12:38:40.967Z,32.43
2018-08-16T12:39:41.006Z,32.65
2018-08-16T12:40:41.065Z,32.49
2018-08-16T12:41:41.080Z,32.49
2018-08-16T12:42:41.123Z,31.91
2018-08-16T12:43:41.160Z,31.71
2018-08-16T12:44:41.203Z,32.08
2018-08-16T12:45:41.242Z,32.17
2018-08-16T12:46:41.278Z,32.27
2018-08-16T12:47:41.394Z,31.95
2018-08-16T12:48:41.357Z,32.08
2018-08-16T12:49:41.401Z,32.19
2018-08-16T12:50:41.484Z,32.20
2018-08-16T12:51:41.477Z,32.61
2018-08-16T12:52:41.516Z,32.89
2018-08-16T12:53:41.625Z,33.21
2018-08-16T12:54:41.596Z,33.63
2018-08-16T12:55:41.635Z,33.12
2018-08-16T12:56:41.676Z,32.86
2018-08-16T12:57:41.714Z,33.17
2018-08-16T12:58:41.753Z,33.55
2018-08-16T12:59:41.793Z,33.66
2018-08-16T13:00:41.834Z,33.43
2018-08-16T13:01:41.870Z,32.62
2018-08-16T13:02:41.913Z,32.75
2018-08-16T13:03:41.951Z,32.79
2018-08-16T13:04:41.990Z,32.91
2018-08-16T13:05:42.032Z,32.31
2018-08-16T13:06:42.071Z,32.15
2018-08-16T13:07:42.110Z,32.46
2018-08-16T13:08:42.146Z,33.16
2018-08-16T13:09:42.185Z,33.55
2018-08-16T13:10:42.227Z,33.93
2018-08-16T13:11:42.268Z,33.09
2018-08-16T13:12:42.308Z,32.96
2018-08-16T13:13:42.346Z,33.28
2018-08-16T13:14:42.386Z,33.44
2018-08-16T13:15:42.421Z,33.46
2018-08-16T13:16:42.462Z,33.39
2018-08-16T13:17:42.503Z,33.58
2018-08-16T13:18:42.541Z,32.59
2018-08-16T13:19:42.582Z,32.65